Pagina principale
METAR-TAF:

METAR-TAF

Aeroporti :

Aeroporto Internazionale di Hato

Curaçao, Antille olandesi

latitudine: 12-12N, longitudine: 068-58W, altezza: 9 m

Osservazione

Il bollettino è stato emesso 37 minuti fa, alle 14:00 UTC
Vento 10 kt da est
Temperature 29°C
Umidità 70%
Pressione 1016 hPa
Visibilità 10 km o più
Poco nuvoloso ad un'altezza di 2200 ft

METAR: TNCC 261400Z 09010KT 9999 FEW022 29/23 Q1016 NOSIG

Ora: 10:37 (14:37 UTC)

Previsione

Il bollettino è stato emesso 3 ore e 22 minuti fa, alle 11:15 UTC
Previsione valida dal 26 alle 12 UTC al 27 alle 12 UTC
Vento 10 kt da est
Visibilità 10 km o più
Nubi sparse ad un'altezza di 2200 ft

TAF: TNCC 261115Z 2612/2712 09010KT 9999 SCT022

Osservazioni e previsioni meteorologiche di più di 4000 aeroporti (messaggi METAR e TAF).

Le stazioni disponibili sono rappresentate dai dischi gialli e rossi sulla carta.

Puntare il mouse per vedere il nome della stazione.

Clicca sopra per visualizzare le osservazioni e previsioni meteorologiche.

Per cambiare la mappa : fare clic sui pulsanti verdi con una croce nera per ingrandire, il pulsante verde con un trattino per diminuire, o sulla freccia verde per le mappe adiacenti.


METAR-TAF: